createdAt,value
2018-06-27T00:00:41.416Z,18.87
2018-06-27T00:01:41.396Z,18.87
2018-06-27T00:02:41.546Z,18.87
2018-06-27T00:03:41.405Z,18.87
2018-06-27T00:04:41.401Z,18.81
2018-06-27T00:05:41.415Z,18.87
2018-06-27T00:06:41.408Z,18.81
2018-06-27T00:07:41.415Z,18.5
2018-06-27T00:08:41.604Z,18.44
2018-06-27T00:09:41.421Z,18.44
2018-06-27T00:10:41.490Z,18.44
2018-06-27T00:11:41.639Z,18.37
2018-06-27T00:12:41.421Z,18.44
2018-06-27T00:13:41.447Z,18.19
2018-06-27T00:14:41.418Z,18.19
2018-06-27T00:15:41.473Z,18.25
2018-06-27T00:16:41.547Z,18.19
2018-06-27T00:17:41.437Z,18.12
2018-06-27T00:18:41.412Z,18.19
2018-06-27T00:19:41.517Z,18.19
2018-06-27T00:20:41.477Z,18.19
2018-06-27T00:21:41.514Z,18.06
2018-06-27T00:22:41.436Z,18
2018-06-27T00:23:41.548Z,18.06
2018-06-27T00:24:41.462Z,18.06
2018-06-27T00:25:41.489Z,18.06
2018-06-27T00:26:41.469Z,18.06
2018-06-27T00:27:41.465Z,18.06
2018-06-27T00:28:41.460Z,18.06
2018-06-27T00:29:41.428Z,18.06
2018-06-27T00:30:41.427Z,18.06
2018-06-27T00:31:41.529Z,18.06
2018-06-27T00:32:41.448Z,18
2018-06-27T00:33:41.477Z,18.06
2018-06-27T00:34:41.417Z,18.06
2018-06-27T00:35:41.502Z,18.06
2018-06-27T00:36:41.425Z,18.12
2018-06-27T00:37:41.443Z,18.06
2018-06-27T00:38:41.458Z,18.12
2018-06-27T00:39:41.443Z,18.12
2018-06-27T00:40:41.472Z,18.12
2018-06-27T00:41:41.511Z,18.12
2018-06-27T00:42:41.495Z,18.12
2018-06-27T00:43:41.566Z,18.12
2018-06-27T00:44:41.462Z,18.06
2018-06-27T00:45:41.490Z,18.06
2018-06-27T00:46:41.464Z,18
2018-06-27T00:47:41.418Z,18
2018-06-27T00:48:41.453Z,18.06
2018-06-27T00:49:41.500Z,18.06
2018-06-27T00:50:41.515Z,18
2018-06-27T00:51:41.440Z,18
2018-06-27T00:52:41.429Z,18
2018-06-27T00:53:41.495Z,18
2018-06-27T00:54:41.439Z,18
2018-06-27T00:55:41.450Z,18
2018-06-27T00:56:41.472Z,18
2018-06-27T00:57:41.453Z,18
2018-06-27T00:58:41.461Z,18
2018-06-27T00:59:41.473Z,17.94
2018-06-27T01:00:41.440Z,18
2018-06-27T01:01:41.469Z,18
2018-06-27T01:02:41.688Z,17.94
2018-06-27T01:03:41.427Z,17.81
2018-06-27T01:04:41.424Z,17.81
2018-06-27T01:05:41.463Z,17.75
2018-06-27T01:06:41.452Z,17.75
2018-06-27T01:07:41.447Z,17.69
2018-06-27T01:08:41.435Z,17.69
2018-06-27T01:09:41.464Z,17.62
2018-06-27T01:10:42.054Z,17.62
2018-06-27T01:11:41.475Z,17.62
2018-06-27T01:12:41.461Z,17.56
2018-06-27T01:13:41.506Z,17.56
2018-06-27T01:14:41.468Z,17.62
2018-06-27T01:15:41.478Z,17.56
2018-06-27T01:16:41.618Z,17.62
2018-06-27T01:17:41.473Z,17.62
2018-06-27T01:18:41.463Z,17.56
2018-06-27T01:19:41.562Z,17.56
2018-06-27T01:20:41.480Z,17.56
2018-06-27T01:21:41.658Z,17.56
2018-06-27T01:22:41.859Z,17.44
2018-06-27T01:23:41.489Z,17.44
2018-06-27T01:24:41.478Z,17.44
2018-06-27T01:25:41.452Z,17.44
2018-06-27T01:26:41.481Z,17.37
2018-06-27T01:27:41.566Z,17.37
2018-06-27T01:28:41.461Z,17.31
2018-06-27T01:29:41.474Z,17.37
2018-06-27T01:30:41.480Z,17.37
2018-06-27T01:31:41.570Z,17.37
2018-06-27T01:32:41.477Z,17.37
2018-06-27T01:33:41.586Z,17.31
2018-06-27T01:34:41.602Z,17.31
2018-06-27T01:35:41.555Z,17.37
2018-06-27T01:36:41.791Z,17.31
2018-06-27T01:37:41.763Z,17.37
2018-06-27T01:38:41.604Z,17.37
2018-06-27T01:39:41.489Z,17.37
2018-06-27T01:40:41.631Z,17.31
2018-06-27T01:41:41.631Z,17.31
2018-06-27T01:42:41.613Z,17.25
2018-06-27T01:43:41.616Z,17.25
2018-06-27T01:44:41.654Z,17.25
2018-06-27T01:45:41.532Z,17.25
2018-06-27T01:46:41.514Z,17.19
2018-06-27T01:47:41.643Z,17.25
2018-06-27T01:48:41.539Z,17.19
2018-06-27T01:49:41.504Z,17.12
2018-06-27T01:50:41.543Z,17.06
2018-06-27T01:51:41.523Z,17.06
2018-06-27T01:52:41.553Z,17.12
2018-06-27T01:53:41.510Z,17
2018-06-27T01:54:41.666Z,17.06
2018-06-27T01:55:41.477Z,17.06
2018-06-27T01:56:41.499Z,17
2018-06-27T01:57:41.482Z,17.06
2018-06-27T01:58:41.537Z,17.06
2018-06-27T01:59:41.502Z,17
2018-06-27T02:00:41.484Z,17
2018-06-27T02:01:41.521Z,16.94
2018-06-27T02:02:41.680Z,17
2018-06-27T02:03:41.504Z,16.94
2018-06-27T02:04:41.681Z,16.94
2018-06-27T02:05:41.519Z,16.94
2018-06-27T02:06:41.506Z,16.94
2018-06-27T02:07:41.507Z,17
2018-06-27T02:08:41.501Z,16.87
2018-06-27T02:09:41.507Z,16.81
2018-06-27T02:10:41.542Z,16.81
2018-06-27T02:11:41.495Z,16.87
2018-06-27T02:12:41.500Z,16.87
2018-06-27T02:13:41.496Z,16.87
2018-06-27T02:14:41.504Z,16.87
2018-06-27T02:15:41.508Z,16.87
2018-06-27T02:16:41.497Z,16.87
2018-06-27T02:17:41.543Z,16.81
2018-06-27T02:18:41.517Z,16.81
2018-06-27T02:19:41.523Z,16.69
2018-06-27T02:20:41.564Z,16.69
2018-06-27T02:21:41.500Z,16.69
2018-06-27T02:22:41.519Z,16.62
2018-06-27T02:23:41.526Z,16.62
2018-06-27T02:24:41.585Z,16.62
2018-06-27T02:25:41.527Z,16.69
2018-06-27T02:26:41.512Z,16.62
2018-06-27T02:27:41.532Z,16.62
2018-06-27T02:28:41.538Z,16.62
2018-06-27T02:29:41.493Z,16.62
2018-06-27T02:30:41.574Z,16.69
2018-06-27T02:31:41.540Z,16.69
2018-06-27T02:32:41.568Z,16.69
2018-06-27T02:33:41.681Z,16.69
2018-06-27T02:34:41.632Z,16.75
2018-06-27T02:35:41.596Z,16.69
2018-06-27T02:36:41.650Z,16.75
2018-06-27T02:37:41.511Z,16.75
2018-06-27T02:38:41.564Z,16.75
2018-06-27T02:39:41.588Z,16.75
2018-06-27T02:40:41.564Z,16.75
2018-06-27T02:41:41.606Z,16.75
2018-06-27T02:42:41.553Z,16.69
2018-06-27T02:43:41.558Z,16.69
2018-06-27T02:44:41.597Z,16.62
2018-06-27T02:45:41.520Z,16.69
2018-06-27T02:46:41.532Z,16.62
2018-06-27T02:47:41.513Z,16.62
2018-06-27T02:48:41.556Z,16.62
2018-06-27T02:49:42.045Z,16.62
2018-06-27T02:50:41.537Z,16.62
2018-06-27T02:51:41.547Z,16.62
2018-06-27T02:52:41.556Z,16.62
2018-06-27T02:53:41.537Z,16.69
2018-06-27T02:54:41.604Z,16.62
2018-06-27T02:55:41.563Z,16.62
2018-06-27T02:56:41.602Z,16.62
2018-06-27T02:57:41.622Z,16.62
2018-06-27T02:58:41.559Z,16.5
2018-06-27T02:59:41.653Z,16.44
2018-06-27T03:00:41.583Z,16.44
2018-06-27T03:01:41.593Z,16.5
2018-06-27T03:02:41.674Z,16.44
2018-06-27T03:03:41.654Z,16.5
2018-06-27T03:04:41.600Z,16.5
2018-06-27T03:05:41.684Z,16.5
2018-06-27T03:06:41.556Z,16.5
2018-06-27T03:07:41.590Z,16.44
2018-06-27T03:08:41.599Z,16.44
2018-06-27T03:09:41.574Z,16.44
2018-06-27T03:10:41.531Z,16.44
2018-06-27T03:11:41.736Z,16.44
2018-06-27T03:12:41.682Z,16.44
2018-06-27T03:13:41.594Z,16.44
2018-06-27T03:14:41.554Z,16.44
2018-06-27T03:15:41.603Z,16.44
2018-06-27T03:16:41.608Z,16.5
2018-06-27T03:17:41.590Z,16.44
2018-06-27T03:18:41.600Z,16.44
2018-06-27T03:19:41.584Z,16.44
2018-06-27T03:20:41.577Z,16.5
2018-06-27T03:21:41.558Z,16.5
2018-06-27T03:22:41.551Z,16.5
2018-06-27T03:23:41.564Z,16.5
2018-06-27T03:24:41.588Z,16.5
2018-06-27T03:25:41.627Z,16.5
2018-06-27T03:26:41.557Z,16.5
2018-06-27T03:27:41.607Z,16.5
2018-06-27T03:28:41.681Z,16.5
2018-06-27T03:29:41.576Z,16.5
2018-06-27T03:30:41.566Z,16.5
2018-06-27T03:31:41.619Z,16.5
2018-06-27T03:32:41.542Z,16.44
2018-06-27T03:33:41.799Z,16.5
2018-06-27T03:34:41.541Z,16.5
2018-06-27T03:35:41.544Z,16.44
2018-06-27T03:36:41.592Z,16.5
2018-06-27T03:37:41.563Z,16.44
2018-06-27T03:38:41.584Z,16.44
2018-06-27T03:39:41.564Z,16.44
2018-06-27T03:40:41.580Z,16.44
2018-06-27T03:41:41.590Z,16.37
2018-06-27T03:42:41.593Z,16.37
2018-06-27T03:43:41.566Z,16.37
2018-06-27T03:44:41.592Z,16.37
2018-06-27T03:45:41.570Z,16.37
2018-06-27T03:46:41.643Z,16.37
2018-06-27T03:47:41.608Z,16.37
2018-06-27T03:48:41.605Z,16.37
2018-06-27T03:49:41.598Z,16.37
2018-06-27T03:50:41.809Z,16.31
2018-06-27T03:51:41.578Z,16.37
2018-06-27T03:52:41.767Z,16.37
2018-06-27T03:53:41.586Z,16.37
2018-06-27T03:54:41.599Z,16.37
2018-06-27T03:55:41.616Z,16.37
2018-06-27T03:56:41.591Z,16.37
2018-06-27T03:57:41.633Z,16.37
2018-06-27T03:58:41.702Z,16.37
2018-06-27T03:59:41.606Z,16.37
2018-06-27T04:00:41.581Z,16.31
2018-06-27T04:01:41.699Z,16.37
2018-06-27T04:02:41.797Z,16.31
2018-06-27T04:03:41.583Z,16.25
2018-06-27T04:04:41.641Z,16.31
2018-06-27T04:05:41.633Z,16.31
2018-06-27T04:06:41.621Z,16.37
2018-06-27T04:07:41.594Z,16.31
2018-06-27T04:08:41.573Z,16.31
2018-06-27T04:09:41.682Z,16.31
2018-06-27T04:10:41.572Z,16.31
2018-06-27T04:11:41.601Z,16.31
2018-06-27T04:12:42.790Z,16.37
2018-06-27T04:13:41.579Z,16.31
2018-06-27T04:14:41.722Z,16.37
2018-06-27T04:15:41.801Z,16.31
2018-06-27T04:16:41.613Z,16.37
2018-06-27T04:17:41.656Z,16.31
2018-06-27T04:18:41.586Z,16.31
2018-06-27T04:19:41.614Z,16.37
2018-06-27T04:20:41.591Z,16.37
2018-06-27T04:21:41.612Z,16.37
2018-06-27T04:22:41.617Z,16.37
2018-06-27T04:23:41.635Z,16.37
2018-06-27T04:24:41.597Z,16.37
2018-06-27T04:25:41.614Z,16.37
2018-06-27T04:26:41.586Z,16.37
2018-06-27T04:27:41.592Z,16.37
2018-06-27T04:28:41.618Z,16.37
2018-06-27T04:29:41.591Z,16.44
2018-06-27T04:30:41.582Z,16.44
2018-06-27T04:31:41.587Z,16.44
2018-06-27T04:32:41.682Z,16.44
2018-06-27T04:33:41.567Z,16.44
2018-06-27T04:34:41.613Z,16.5
2018-06-27T04:35:41.655Z,16.5
2018-06-27T04:36:41.965Z,16.5
2018-06-27T04:37:41.645Z,16.5
2018-06-27T04:38:41.560Z,16.5
2018-06-27T04:39:41.591Z,16.56
2018-06-27T04:40:41.638Z,16.5
2018-06-27T04:41:41.680Z,16.5
2018-06-27T04:42:41.707Z,16.5
2018-06-27T04:43:41.650Z,16.5
2018-06-27T04:44:41.574Z,16.5
2018-06-27T04:45:41.618Z,16.5
2018-06-27T04:46:41.663Z,16.56
2018-06-27T04:47:41.686Z,16.5
2018-06-27T04:48:41.650Z,16.5
2018-06-27T04:49:41.614Z,16.56
2018-06-27T04:50:41.632Z,16.62
2018-06-27T04:51:41.614Z,16.62
2018-06-27T04:52:41.589Z,16.62
2018-06-27T04:53:41.633Z,16.69
2018-06-27T04:54:41.600Z,16.62
2018-06-27T04:55:41.646Z,16.69
2018-06-27T04:56:41.615Z,16.69
2018-06-27T04:57:41.629Z,16.75
2018-06-27T04:58:41.677Z,16.75
2018-06-27T04:59:41.732Z,16.75
2018-06-27T05:00:41.641Z,16.75
2018-06-27T05:01:41.994Z,16.75
2018-06-27T05:02:41.599Z,16.75
2018-06-27T05:03:41.644Z,16.75
2018-06-27T05:04:41.612Z,16.75
2018-06-27T05:05:41.660Z,16.81
2018-06-27T05:06:41.657Z,16.81
2018-06-27T05:07:41.630Z,16.81
2018-06-27T05:08:41.626Z,16.87
2018-06-27T05:09:41.617Z,16.81
2018-06-27T05:10:41.640Z,16.87
2018-06-27T05:11:42.011Z,16.81
2018-06-27T05:12:41.696Z,16.81
2018-06-27T05:13:41.615Z,16.81
2018-06-27T05:14:41.615Z,16.81
2018-06-27T05:15:41.623Z,16.81
2018-06-27T05:16:41.640Z,16.81
2018-06-27T05:17:41.758Z,16.81
2018-06-27T05:18:41.653Z,16.81
2018-06-27T05:19:41.712Z,16.81
2018-06-27T05:20:41.637Z,16.87
2018-06-27T05:21:42.026Z,16.87
2018-06-27T05:22:41.707Z,16.87
2018-06-27T05:23:41.628Z,16.94
2018-06-27T05:24:41.623Z,16.94
2018-06-27T05:25:41.815Z,16.94
2018-06-27T05:26:41.795Z,16.87
2018-06-27T05:27:42.989Z,16.81
2018-06-27T05:28:41.700Z,16.81
2018-06-27T05:29:41.607Z,16.87
2018-06-27T05:30:41.624Z,16.94
2018-06-27T05:31:41.684Z,16.94
2018-06-27T05:32:41.638Z,16.87
2018-06-27T05:33:41.623Z,16.87
2018-06-27T05:34:41.644Z,16.94
2018-06-27T05:35:41.704Z,17
2018-06-27T05:36:41.663Z,16.94
2018-06-27T05:37:41.615Z,16.94
2018-06-27T05:38:41.622Z,16.94
2018-06-27T05:39:41.637Z,17
2018-06-27T05:40:41.623Z,17
2018-06-27T05:41:41.836Z,17
2018-06-27T05:42:41.678Z,17.06
2018-06-27T05:43:42.689Z,17.06
2018-06-27T05:44:41.612Z,17.12
2018-06-27T05:45:41.944Z,17.12
2018-06-27T05:46:41.686Z,17.12
2018-06-27T05:47:41.628Z,17.06
2018-06-27T05:48:41.650Z,17.12
2018-06-27T05:49:41.631Z,17.12
2018-06-27T05:50:41.631Z,17.06
2018-06-27T05:51:42.727Z,17.12
2018-06-27T05:52:41.744Z,17.19
2018-06-27T05:53:41.686Z,17.06
2018-06-27T05:54:41.693Z,17.12
2018-06-27T05:55:41.609Z,17.12
2018-06-27T05:56:41.637Z,17.12
2018-06-27T05:57:41.645Z,17.19
2018-06-27T05:58:41.628Z,17.25
2018-06-27T05:59:41.956Z,17.19
2018-06-27T06:00:41.687Z,17.25
2018-06-27T06:01:41.657Z,17.25
2018-06-27T06:02:41.824Z,17.25
2018-06-27T06:03:41.669Z,17.25
2018-06-27T06:04:41.688Z,17.25
2018-06-27T06:05:41.673Z,17.19
2018-06-27T06:06:41.628Z,17.25
2018-06-27T06:07:41.635Z,17.31
2018-06-27T06:08:41.634Z,17.37
2018-06-27T06:09:41.637Z,17.37
2018-06-27T06:10:42.079Z,17.37
2018-06-27T06:11:41.709Z,17.44
2018-06-27T06:12:41.628Z,17.44
2018-06-27T06:13:41.689Z,17.5
2018-06-27T06:14:41.653Z,17.5
2018-06-27T06:15:41.670Z,17.56
2018-06-27T06:16:41.659Z,17.56
2018-06-27T06:17:41.707Z,17.62
2018-06-27T06:18:41.629Z,17.62
2018-06-27T06:19:42.105Z,17.62
2018-06-27T06:20:41.697Z,17.62
2018-06-27T06:21:41.687Z,17.62
2018-06-27T06:22:41.743Z,17.62
2018-06-27T06:23:41.713Z,17.69
2018-06-27T06:24:41.806Z,17.75
2018-06-27T06:25:42.513Z,17.75
2018-06-27T06:26:41.822Z,17.81
2018-06-27T06:27:41.719Z,17.87
2018-06-27T06:28:41.669Z,17.87
2018-06-27T06:29:41.708Z,17.94
2018-06-27T06:30:41.664Z,17.94
2018-06-27T06:31:41.907Z,17.94
2018-06-27T06:32:41.712Z,17.94
2018-06-27T06:33:41.790Z,18
2018-06-27T06:34:41.696Z,18
2018-06-27T06:35:41.663Z,17.94
2018-06-27T06:36:41.669Z,18
2018-06-27T06:37:41.657Z,18
2018-06-27T06:38:41.700Z,18.06
2018-06-27T06:39:41.697Z,18.06
2018-06-27T06:40:42.140Z,18.12
2018-06-27T06:41:41.724Z,18.12
2018-06-27T06:42:41.666Z,18.12
2018-06-27T06:43:41.660Z,18.19
2018-06-27T06:44:41.662Z,18.19
2018-06-27T06:45:41.701Z,18.19
2018-06-27T06:46:41.681Z,18.19
2018-06-27T06:47:41.692Z,18.19
2018-06-27T06:48:41.661Z,18.25
2018-06-27T06:49:41.695Z,18.31
2018-06-27T06:50:41.645Z,18.37
2018-06-27T06:51:41.681Z,18.37
2018-06-27T06:52:41.692Z,18.37
2018-06-27T06:53:42.065Z,18.37
2018-06-27T06:54:41.680Z,18.44
2018-06-27T06:55:41.680Z,18.44
2018-06-27T06:56:41.678Z,18.5
2018-06-27T06:57:41.683Z,18.62
2018-06-27T06:58:42.273Z,18.56
2018-06-27T06:59:41.903Z,18.69
2018-06-27T07:00:42.828Z,18.69
2018-06-27T07:01:41.820Z,18.69
2018-06-27T07:02:41.818Z,18.75
2018-06-27T07:03:41.781Z,18.75
2018-06-27T07:04:41.665Z,18.81
2018-06-27T07:05:41.694Z,18.81
2018-06-27T07:06:41.721Z,18.87
2018-06-27T07:07:41.889Z,18.87
2018-06-27T07:08:41.736Z,18.94
2018-06-27T07:09:41.681Z,18.94
2018-06-27T07:10:41.748Z,19
2018-06-27T07:11:41.734Z,19
2018-06-27T07:12:41.759Z,19
2018-06-27T07:13:41.748Z,19
2018-06-27T07:14:41.695Z,19
2018-06-27T07:15:42.027Z,19.06
2018-06-27T07:16:41.696Z,19.12
2018-06-27T07:17:42.498Z,19.12
2018-06-27T07:18:41.681Z,19.19
2018-06-27T07:19:41.747Z,19.19
2018-06-27T07:20:41.754Z,19.25
2018-06-27T07:21:41.787Z,19.25
2018-06-27T07:22:41.704Z,19.31
2018-06-27T07:23:41.750Z,19.37
2018-06-27T07:24:41.700Z,19.37
2018-06-27T07:25:41.790Z,19.44
2018-06-27T07:26:41.715Z,19.5
2018-06-27T07:27:41.749Z,19.5
2018-06-27T07:28:42.818Z,19.56
2018-06-27T07:29:41.710Z,19.56
2018-06-27T07:30:41.744Z,19.62
2018-06-27T07:31:41.873Z,19.69
2018-06-27T07:32:41.809Z,19.75
2018-06-27T07:33:41.794Z,19.75
2018-06-27T07:34:41.791Z,19.75
2018-06-27T07:35:41.732Z,19.81
2018-06-27T07:36:41.760Z,19.94
2018-06-27T07:37:41.745Z,19.81
2018-06-27T07:38:42.482Z,19.81
2018-06-27T07:39:41.741Z,19.81
2018-06-27T07:40:41.788Z,19.87
2018-06-27T07:41:41.724Z,19.94
2018-06-27T07:42:41.694Z,19.94
2018-06-27T07:43:41.707Z,19.94
2018-06-27T07:44:41.731Z,19.87
2018-06-27T07:45:41.720Z,19.87
2018-06-27T07:46:41.724Z,19.87
2018-06-27T07:47:41.720Z,20
2018-06-27T07:48:41.813Z,20.06
2018-06-27T07:49:42.055Z,20.12
2018-06-27T07:50:41.746Z,20.19
2018-06-27T07:51:41.712Z,20.19
2018-06-27T07:52:41.776Z,20.25
2018-06-27T07:53:41.746Z,20.25
2018-06-27T07:54:41.780Z,20.31
2018-06-27T07:55:41.711Z,20.37
2018-06-27T07:56:41.755Z,20.31
2018-06-27T07:57:41.753Z,20.31
2018-06-27T07:58:41.809Z,20.37
2018-06-27T07:59:41.738Z,20.37
2018-06-27T08:00:41.823Z,20.37
2018-06-27T08:01:41.745Z,20.31
2018-06-27T08:02:41.772Z,20.31
2018-06-27T08:03:41.765Z,20.37
2018-06-27T08:04:41.844Z,20.44
2018-06-27T08:05:42.909Z,20.5
2018-06-27T08:06:41.823Z,20.56
2018-06-27T08:07:41.746Z,20.5
2018-06-27T08:08:41.837Z,20.62
2018-06-27T08:09:41.790Z,20.75
2018-06-27T08:10:41.731Z,20.81
2018-06-27T08:11:41.799Z,20.81
2018-06-27T08:12:42.582Z,20.75
2018-06-27T08:13:41.797Z,20.81
2018-06-27T08:14:41.761Z,20.81
2018-06-27T08:15:41.782Z,20.81
2018-06-27T08:16:42.821Z,20.88
2018-06-27T08:17:42.526Z,20.88
2018-06-27T08:18:41.783Z,20.88
2018-06-27T08:19:41.759Z,20.94
2018-06-27T08:20:41.732Z,21
2018-06-27T08:21:41.821Z,21.06
2018-06-27T08:22:41.774Z,21
2018-06-27T08:23:41.819Z,20.94
2018-06-27T08:24:41.737Z,20.94
2018-06-27T08:25:41.750Z,20.94
2018-06-27T08:26:41.750Z,20.94
2018-06-27T08:27:41.807Z,21
2018-06-27T08:28:41.894Z,21.06
2018-06-27T08:29:41.784Z,21.12
2018-06-27T08:30:42.807Z,21.12
2018-06-27T08:31:41.799Z,21.12
2018-06-27T08:32:43.221Z,21.19
2018-06-27T08:33:41.759Z,21.19
2018-06-27T08:34:41.921Z,21.25
2018-06-27T08:35:42.010Z,21.19
2018-06-27T08:36:41.797Z,21.31
2018-06-27T08:37:41.779Z,21.31
2018-06-27T08:38:41.790Z,21.31
2018-06-27T08:39:41.811Z,21.31
2018-06-27T08:40:42.116Z,21.31
2018-06-27T08:41:41.845Z,21.31
2018-06-27T08:42:41.759Z,21.31
2018-06-27T08:43:42.043Z,21.37
2018-06-27T08:44:41.800Z,21.44
2018-06-27T08:45:41.764Z,21.56
2018-06-27T08:46:41.932Z,21.69
2018-06-27T08:47:41.793Z,21.81
2018-06-27T08:48:41.756Z,21.87
2018-06-27T08:49:41.758Z,21.75
2018-06-27T08:50:41.755Z,21.75
2018-06-27T08:51:41.921Z,21.69
2018-06-27T08:52:41.788Z,21.62
2018-06-27T08:53:41.834Z,21.56
2018-06-27T08:54:41.792Z,21.62
2018-06-27T08:55:41.779Z,21.69
2018-06-27T08:56:41.766Z,21.75
2018-06-27T08:57:41.805Z,21.81
2018-06-27T08:58:42.161Z,21.81
2018-06-27T08:59:41.783Z,21.81
2018-06-27T09:00:41.762Z,21.81
2018-06-27T09:01:41.784Z,21.87
2018-06-27T09:02:41.811Z,21.94
2018-06-27T09:03:41.794Z,22
2018-06-27T09:04:41.773Z,22
2018-06-27T09:05:41.780Z,22
2018-06-27T09:06:41.771Z,22
2018-06-27T09:07:42.122Z,22.06
2018-06-27T09:08:41.794Z,22
2018-06-27T09:09:41.758Z,22.06
2018-06-27T09:10:41.783Z,22.19
2018-06-27T09:11:41.818Z,22.19
2018-06-27T09:12:41.883Z,22.31
2018-06-27T09:13:41.877Z,22.37
2018-06-27T09:14:41.794Z,22.31
2018-06-27T09:15:41.817Z,22.37
2018-06-27T09:16:41.777Z,22.37
2018-06-27T09:17:41.789Z,22.37
2018-06-27T09:18:42.843Z,22.44
2018-06-27T09:19:41.752Z,22.5
2018-06-27T09:20:41.922Z,22.56
2018-06-27T09:21:41.775Z,22.69
2018-06-27T09:22:41.773Z,22.75
2018-06-27T09:23:41.808Z,22.75
2018-06-27T09:24:41.848Z,22.81
2018-06-27T09:25:41.807Z,22.75
2018-06-27T09:26:41.829Z,22.81
2018-06-27T09:27:41.784Z,22.81
2018-06-27T09:28:41.816Z,22.81
2018-06-27T09:29:41.830Z,22.94
2018-06-27T09:30:41.787Z,22.94
2018-06-27T09:31:41.917Z,23
2018-06-27T09:32:41.767Z,23.06
2018-06-27T09:33:41.924Z,23.12
2018-06-27T09:34:41.854Z,23.19
2018-06-27T09:35:41.812Z,23.25
2018-06-27T09:36:41.819Z,23.31
2018-06-27T09:37:41.789Z,23.38
2018-06-27T09:38:41.822Z,23.38
2018-06-27T09:39:41.821Z,23.38
2018-06-27T09:40:41.811Z,23.38
2018-06-27T09:41:41.939Z,23.38
2018-06-27T09:42:41.838Z,23.19
2018-06-27T09:43:41.880Z,23.19
2018-06-27T09:44:41.865Z,23.19
2018-06-27T09:45:41.854Z,23.25
2018-06-27T09:46:41.821Z,23.25
2018-06-27T09:47:41.863Z,23.19
2018-06-27T09:48:42.039Z,23.19
2018-06-27T09:49:41.794Z,23.19
2018-06-27T09:50:41.890Z,23.19
2018-06-27T09:51:41.794Z,23.19
2018-06-27T09:52:41.835Z,23.19
2018-06-27T09:53:41.842Z,23.19
2018-06-27T09:54:41.816Z,23.38
2018-06-27T09:55:41.879Z,23.38
2018-06-27T09:56:42.328Z,23.44
2018-06-27T09:57:41.802Z,23.38
2018-06-27T09:58:41.936Z,23.38
2018-06-27T09:59:41.979Z,23.44
2018-06-27T10:00:41.847Z,23.56
2018-06-27T10:01:41.921Z,23.62
2018-06-27T10:02:41.885Z,23.69
2018-06-27T10:03:41.908Z,23.69
2018-06-27T10:04:41.829Z,23.75
2018-06-27T10:05:41.843Z,23.81
2018-06-27T10:06:41.859Z,23.94
2018-06-27T10:07:42.303Z,23.87
2018-06-27T10:08:41.855Z,24
2018-06-27T10:09:41.870Z,23.94
2018-06-27T10:10:41.794Z,23.87
2018-06-27T10:11:41.808Z,23.87
2018-06-27T10:12:41.832Z,23.87
2018-06-27T10:13:41.938Z,23.87
2018-06-27T10:14:41.893Z,23.81
2018-06-27T10:15:41.883Z,23.75
2018-06-27T10:16:41.808Z,23.75
2018-06-27T10:17:41.820Z,23.69
2018-06-27T10:18:41.858Z,23.69
2018-06-27T10:19:41.825Z,23.62
2018-06-27T10:20:41.841Z,23.62
2018-06-27T10:21:41.852Z,23.62
2018-06-27T10:22:42.534Z,23.56
2018-06-27T10:23:41.894Z,23.56
2018-06-27T10:24:41.943Z,23.62
2018-06-27T10:25:41.903Z,23.56
2018-06-27T10:26:41.869Z,23.62
2018-06-27T10:27:41.955Z,23.69
2018-06-27T10:28:41.856Z,23.87
2018-06-27T10:29:42.026Z,23.81
2018-06-27T10:30:41.836Z,23.75
2018-06-27T10:31:41.904Z,23.69
2018-06-27T10:32:41.851Z,23.69
2018-06-27T10:33:41.934Z,23.62
2018-06-27T10:34:42.013Z,23.62
2018-06-27T10:35:42.368Z,23.62
2018-06-27T10:36:41.916Z,23.69
2018-06-27T10:37:41.921Z,23.81
2018-06-27T10:38:41.906Z,23.87
2018-06-27T10:39:41.906Z,23.94
2018-06-27T10:40:41.849Z,24
2018-06-27T10:41:41.843Z,24.25
2018-06-27T10:42:41.847Z,24.37
2018-06-27T10:43:41.863Z,24.31
2018-06-27T10:44:41.833Z,24.37
2018-06-27T10:45:41.989Z,24.37
2018-06-27T10:46:41.970Z,24.5
2018-06-27T10:47:41.891Z,24.63
2018-06-27T10:48:41.861Z,24.69
2018-06-27T10:49:41.952Z,24.69
2018-06-27T10:50:41.977Z,24.75
2018-06-27T10:51:41.944Z,24.75
2018-06-27T10:52:41.874Z,24.75
2018-06-27T10:53:41.872Z,24.87
2018-06-27T10:54:41.868Z,24.94
2018-06-27T10:55:41.845Z,25.12
2018-06-27T10:56:41.829Z,25
2018-06-27T10:57:41.888Z,24.94
2018-06-27T10:58:42.148Z,24.87
2018-06-27T10:59:41.981Z,24.81
2018-06-27T11:00:41.909Z,24.75
2018-06-27T11:01:41.850Z,24.75
2018-06-27T11:02:41.927Z,24.69
2018-06-27T11:03:41.841Z,24.69
2018-06-27T11:04:41.853Z,24.69
2018-06-27T11:05:42.056Z,24.75
2018-06-27T11:06:41.871Z,24.69
2018-06-27T11:07:41.853Z,24.69
2018-06-27T11:08:42.063Z,24.69
2018-06-27T11:09:41.978Z,24.69
2018-06-27T11:10:41.969Z,24.69
2018-06-27T11:11:41.898Z,24.56
2018-06-27T11:12:41.960Z,24.56
2018-06-27T11:13:42.005Z,24.63
2018-06-27T11:14:41.855Z,24.63
2018-06-27T11:15:41.911Z,24.69
2018-06-27T11:16:41.925Z,24.63
2018-06-27T11:17:41.897Z,24.63
2018-06-27T11:18:41.857Z,24.63
2018-06-27T11:19:41.863Z,24.63
2018-06-27T11:20:41.890Z,24.56
2018-06-27T11:21:41.880Z,24.56
2018-06-27T11:22:41.903Z,24.63
2018-06-27T11:23:41.924Z,24.69
2018-06-27T11:24:41.878Z,24.87
2018-06-27T11:25:41.978Z,24.87
2018-06-27T11:26:41.921Z,24.87
2018-06-27T11:27:41.864Z,24.94
2018-06-27T11:28:41.899Z,25
2018-06-27T11:29:41.980Z,25.12
2018-06-27T11:30:41.915Z,25.25
2018-06-27T11:31:41.883Z,25.31
2018-06-27T11:32:42.797Z,25.44
2018-06-27T11:33:41.900Z,25.37
2018-06-27T11:34:41.944Z,25.37
2018-06-27T11:35:41.894Z,25.37
2018-06-27T11:36:42.058Z,25.44
2018-06-27T11:37:45.831Z,25.44
2018-06-27T11:38:42.207Z,25.56
2018-06-27T11:39:41.943Z,25.62
2018-06-27T11:40:41.858Z,25.62
2018-06-27T11:41:42.066Z,25.81
2018-06-27T11:42:42.075Z,25.81
2018-06-27T11:43:42.103Z,25.75
2018-06-27T11:44:42.177Z,25.69
2018-06-27T11:45:42.264Z,25.5
2018-06-27T11:46:41.944Z,25.31
2018-06-27T11:47:42.167Z,25.25
2018-06-27T11:48:41.933Z,25.19
2018-06-27T11:49:41.885Z,25.19
2018-06-27T11:50:41.906Z,25.25
2018-06-27T11:51:42.229Z,25.25
2018-06-27T11:52:41.989Z,25.37
2018-06-27T11:53:41.932Z,25.44
2018-06-27T11:54:41.991Z,25.44
2018-06-27T11:55:41.917Z,25.5
2018-06-27T11:56:42.073Z,25.56
2018-06-27T11:57:41.883Z,25.62
2018-06-27T11:58:42.150Z,25.75
2018-06-27T11:59:42.212Z,25.81
2018-06-27T12:00:41.908Z,25.81
2018-06-27T12:01:41.922Z,26
2018-06-27T12:02:42.105Z,26.06
2018-06-27T12:03:42.106Z,26.06
2018-06-27T12:04:42.148Z,25.88
2018-06-27T12:05:41.903Z,25.81
2018-06-27T12:06:41.947Z,25.69
2018-06-27T12:07:41.906Z,25.75
2018-06-27T12:08:41.957Z,25.75
2018-06-27T12:09:42.082Z,25.88
2018-06-27T12:10:41.905Z,25.94
2018-06-27T12:11:41.956Z,26.19
2018-06-27T12:12:41.984Z,26.12
2018-06-27T12:13:41.936Z,26.19
2018-06-27T12:14:41.911Z,26.25
2018-06-27T12:15:41.939Z,26.25
2018-06-27T12:16:41.934Z,26.25
2018-06-27T12:17:41.994Z,26.31
2018-06-27T12:18:42.205Z,26.31
2018-06-27T12:19:41.926Z,26.44
2018-06-27T12:20:41.960Z,26.5
2018-06-27T12:21:41.909Z,26.5
2018-06-27T12:22:41.977Z,26.5
2018-06-27T12:23:41.921Z,26.62
2018-06-27T12:24:41.974Z,26.69
2018-06-27T12:25:41.947Z,26.75
2018-06-27T12:26:41.990Z,26.75
2018-06-27T12:27:41.943Z,26.75
2018-06-27T12:28:41.941Z,26.62
2018-06-27T12:29:41.973Z,26.5
2018-06-27T12:30:41.961Z,26.44
2018-06-27T12:31:41.930Z,26.44
2018-06-27T12:32:42.100Z,26.31
2018-06-27T12:33:42.176Z,26.37
2018-06-27T12:34:42.085Z,26.37
2018-06-27T12:35:41.930Z,26.44
2018-06-27T12:36:42.105Z,26.37
2018-06-27T12:37:42.101Z,26.25
2018-06-27T12:38:42.721Z,26.12
2018-06-27T12:39:42.184Z,26.06
2018-06-27T12:40:41.941Z,26.06
2018-06-27T12:41:41.983Z,26.12
2018-06-27T12:42:42.004Z,26.25
2018-06-27T12:43:41.955Z,26.25
2018-06-27T12:44:42.615Z,26.25
2018-06-27T12:45:41.969Z,26.25
2018-06-27T12:46:42.095Z,26.25
2018-06-27T12:47:42.289Z,26.44
2018-06-27T12:48:42.093Z,26.5
2018-06-27T12:49:42.002Z,26.5
2018-06-27T12:50:42.332Z,26.37
2018-06-27T12:51:42.237Z,26.44
2018-06-27T12:52:42.014Z,26.37
2018-06-27T12:53:41.972Z,26.31
2018-06-27T12:54:42.143Z,26.31
2018-06-27T12:55:42.112Z,26.25
2018-06-27T12:56:42.206Z,26.37
2018-06-27T12:57:42.385Z,26.5
2018-06-27T12:58:42.159Z,26.56
2018-06-27T12:59:42.359Z,26.69